Terminal Aerodrome Forecast
Issued by NWS

Home | Current Version | Previous Version | Text Only | Print | Product List | Glossary On
Versions: 1 2 3 4 5 6 7 8 9 10 11 12 13
000
FTAK31 PAJN 201126
TAFAKT
TAF
PAKT 201126Z 2012/2112 14004KT P6SM OVC012
     FM201800 13008KT P6SM BKN050
     FM202100 13010KT P6SM SCT050
     FM210300 14006KT P6SM BKN050
      AMD LTD TO CLD VIS AND WIND 2012/2015=

USA.gov is the U.S. government's official web portal to all federal, state and local government web resources and services.